Time;durP1;ratioP1;P1;durP2;ratioP2;P2;SDS_P1;SDS_P2;PMS_P1;PMS_P2;Temp;Humidity;BMP_temperature;BMP_pressure;BME280_temperature;BME280_humidity;BME280_pressure;Samples;Min_cycle;Max_cycle;Signal;HPM_P1;HPM_P2
2022/09/25 00:01:17;;;;;;;37.43;33.57;;;;;;;;;;4989420;28;20530;-43
2022/09/25 00:03:43;;;;;;;46.17;41.10;;;;;;;;;;4984760;28;20193;-43
2022/09/25 00:06:28;;;;;;;42.20;37.47;;;;;;;;;;4984855;28;20263;-43
2022/09/25 00:08:55;;;;;;;54.27;45.47;;;;;;;;;;4989336;28;20316;-43
2022/09/25 00:11:26;;;;;;;71.80;56.30;;;;;;;;;;4988633;28;21027;-43
2022/09/25 00:13:53;;;;;;;48.90;43.03;;;;;;;;;;4988587;28;20177;-43
2022/09/25 00:16:21;;;;;;;46.80;41.07;;;;;;;;;;4989036;28;21023;-43
2022/09/25 00:21:33;;;;;;;56.80;46.93;;;;;;;;;;4991085;28;20219;-43
2022/09/25 00:24:04;;;;;;;45.53;40.40;;;;;;;;;;4988290;28;20181;-44
2022/09/25 00:26:31;;;;;;;46.70;40.50;;;;;;;;;;4986330;28;20187;-43
2022/09/25 00:29:00;;;;;;;53.40;43.60;;;;;;;;;;4986534;28;20364;-44
2022/09/25 00:31:26;;;;;;;66.87;50.70;;;;;;;;;;4989292;28;20215;-43
2022/09/25 00:34:02;;;;;;;52.73;43.53;;;;;;;;;;4991080;28;20184;-44
2022/09/25 00:36:29;;;;;;;46.70;39.23;;;;;;;;;;4989288;28;21048;-42
2022/09/25 00:38:55;;;;;;;39.03;33.73;;;;;;;;;;4986246;28;21427;-43
2022/09/25 00:41:22;;;;;;;41.67;35.63;;;;;;;;;;4987628;28;20648;-43
2022/09/25 00:43:55;;;;;;;32.80;29.37;;;;;;;;;;4987201;28;21084;-43
2022/09/25 00:46:21;;;;;;;31.73;28.33;;;;;;;;;;4989880;28;20414;-43
2022/09/25 00:48:56;;;;;;;31.30;28.00;;;;;;;;;;4985887;28;20195;-43
2022/09/25 00:51:27;;;;;;;38.80;33.33;;;;;;;;;;4986890;28;20200;-43
2022/09/25 00:53:54;;;;;;;34.67;31.00;;;;;;;;;;4989347;28;20263;-44
2022/09/25 00:56:20;;;;;;;32.33;28.83;;;;;;;;;;4989958;28;20215;-44
2022/09/25 00:58:47;;;;;;;36.63;32.37;;;;;;;;;;4988626;28;20181;-42
2022/09/25 01:01:13;;;;;;;43.63;37.50;;;;;;;;;;4987053;28;20296;-41
2022/09/25 01:03:40;;;;;;;39.93;34.43;;;;;;;;;;4984892;28;20189;-41
2022/09/25 01:06:07;;;;;;;36.53;31.77;;;;;;;;;;4988312;28;20216;-40
2022/09/25 01:08:34;;;;;;;33.67;29.80;;;;;;;;;;4988695;28;20181;-41
2022/09/25 01:11:01;;;;;;;36.23;32.13;;;;;;;;;;4989598;28;20326;-41
2022/09/25 01:13:28;;;;;;;31.67;28.00;;;;;;;;;;4987955;28;20180;-42
2022/09/25 01:16:09;;;;;;;32.17;27.87;;;;;;;;;;4986165;28;20287;-42
2022/09/25 01:18:47;;;;;;;34.10;28.53;;;;;;;;;;4987718;28;20243;-41
2022/09/25 01:21:30;;;;;;;24.93;22.33;;;;;;;;;;4988095;28;20189;-42
2022/09/25 01:24:15;;;;;;;25.60;22.67;;;;;;;;;;4988253;28;20375;-41
2022/09/25 01:26:50;;;;;;;21.57;19.37;;;;;;;;;;4988315;28;20303;-41
2022/09/25 01:29:31;;;;;;;23.33;20.77;;;;;;;;;;4986203;28;20716;-42
2022/09/25 01:32:07;;;;;;;21.77;19.47;;;;;;;;;;4989522;28;20205;-42
2022/09/25 01:34:44;;;;;;;21.60;19.33;;;;;;;;;;4987740;28;20287;-41
2022/09/25 01:37:24;;;;;;;26.60;23.80;;;;;;;;;;4989473;28;20180;-42
2022/09/25 01:39:59;;;;;;;28.40;25.07;;;;;;;;;;4986651;28;20283;-42
2022/09/25 01:42:27;;;;;;;32.80;28.83;;;;;;;;;;4987765;28;20266;-42
2022/09/25 01:44:57;;;;;;;38.97;33.67;;;;;;;;;;4986956;28;20189;-42
2022/09/25 01:47:26;;;;;;;33.33;29.90;;;;;;;;;;4986568;28;21059;-42
2022/09/25 01:49:55;;;;;;;44.70;36.33;;;;;;;;;;4986914;28;20215;-41
2022/09/25 01:52:26;;;;;;;45.63;37.13;;;;;;;;;;4985856;28;20248;-42
2022/09/25 01:54:54;;;;;;;47.37;38.57;;;;;;;;;;4988688;28;20268;-41
2022/09/25 01:57:27;;;;;;;52.80;40.70;;;;;;;;;;4988302;28;20180;-41
2022/09/25 01:59:58;;;;;;;62.10;46.43;;;;;;;;;;4986676;28;20177;-42
2022/09/25 02:02:26;;;;;;;43.23;38.23;;;;;;;;;;4985878;28;20177;-42
2022/09/25 02:04:53;;;;;;;45.63;36.90;;;;;;;;;;4983425;28;21003;-42
2022/09/25 02:07:22;;;;;;;45.23;38.63;;;;;;;;;;4987779;28;20203;-42
2022/09/25 02:09:52;;;;;;;45.67;38.77;;;;;;;;;;4988730;28;20231;-42
2022/09/25 02:12:20;;;;;;;43.43;37.10;;;;;;;;;;4983720;28;20201;-43
2022/09/25 02:15:00;;;;;;;35.70;31.90;;;;;;;;;;4984117;28;20174;-42
2022/09/25 02:20:31;;;;;;;45.97;37.47;;;;;;;;;;4988314;28;21034;-43
2022/09/25 02:23:00;;;;;;;42.30;35.67;;;;;;;;;;4987104;28;20867;-42
2022/09/25 02:25:46;;;;;;;38.57;34.03;;;;;;;;;;4986848;28;20733;-42
2022/09/25 02:28:13;;;;;;;35.97;32.17;;;;;;;;;;4985635;28;21007;-42
2022/09/25 02:30:39;;;;;;;45.53;39.63;;;;;;;;;;4987121;28;20181;-42
2022/09/25 02:33:05;;;;;;;48.40;40.87;;;;;;;;;;4987339;28;20215;-42
2022/09/25 02:35:32;;;;;;;43.43;37.97;;;;;;;;;;4988515;28;20188;-42
2022/09/25 02:37:59;;;;;;;44.50;39.37;;;;;;;;;;5000183;28;20276;-42
2022/09/25 02:40:28;;;;;;;59.23;47.10;;;;;;;;;;4984770;28;20188;-42
2022/09/25 02:42:54;;;;;;;50.60;43.07;;;;;;;;;;4984002;28;20288;-42
2022/09/25 02:45:41;;;;;;;52.77;42.17;;;;;;;;;;4988030;28;20180;-41
2022/09/25 02:48:15;;;;;;;57.97;45.60;;;;;;;;;;4982770;28;20188;-42
2022/09/25 02:51:07;;;;;;;44.20;38.13;;;;;;;;;;4986228;28;20180;-42
2022/09/25 02:53:37;;;;;;;51.33;41.93;;;;;;;;;;4987450;28;20244;-42
2022/09/25 02:56:05;;;;;;;51.63;42.23;;;;;;;;;;4988571;28;20173;-42
2022/09/25 02:58:39;;;;;;;40.27;35.83;;;;;;;;;;4988870;28;20215;-41
2022/09/25 03:01:06;;;;;;;54.93;44.57;;;;;;;;;;4984152;28;20669;-42
2022/09/25 03:03:33;;;;;;;42.23;37.57;;;;;;;;;;4987178;28;20168;-42
2022/09/25 03:06:00;;;;;;;37.30;33.40;;;;;;;;;;4983283;28;20193;-42
2022/09/25 03:08:36;;;;;;;38.67;34.47;;;;;;;;;;4985780;28;20173;-41
2022/09/25 03:11:04;;;;;;;42.33;37.20;;;;;;;;;;4990050;28;21100;-42
2022/09/25 03:13:32;;;;;;;35.77;32.00;;;;;;;;;;4988119;28;21462;-42
2022/09/25 03:16:01;;;;;;;39.07;34.87;;;;;;;;;;4985150;28;20199;-42
2022/09/25 03:18:27;;;;;;;37.27;33.30;;;;;;;;;;4990561;28;20632;-42
2022/09/25 03:20:53;;;;;;;35.33;31.73;;;;;;;;;;4990059;28;20199;-41
2022/09/25 03:23:19;;;;;;;34.90;31.27;;;;;;;;;;4989030;28;20212;-42
2022/09/25 03:25:46;;;;;;;35.37;31.70;;;;;;;;;;4989129;28;20929;-42
2022/09/25 03:28:13;;;;;;;35.53;31.93;;;;;;;;;;4990002;28;20185;-42
2022/09/25 03:30:39;;;;;;;39.37;35.27;;;;;;;;;;4992151;28;20177;-42
2022/09/25 03:33:09;;;;;;;39.13;34.97;;;;;;;;;;4990737;28;21125;-42
2022/09/25 03:35:35;;;;;;;49.97;41.37;;;;;;;;;;4987202;28;20173;-42
2022/09/25 03:38:01;;;;;;;35.33;31.73;;;;;;;;;;4987564;28;20173;-44
2022/09/25 03:40:27;;;;;;;47.50;40.80;;;;;;;;;;4989888;28;20182;-42
2022/09/25 03:42:53;;;;;;;45.93;40.23;;;;;;;;;;4989741;28;20818;-43
2022/09/25 03:45:19;;;;;;;41.87;37.30;;;;;;;;;;4988666;28;20215;-43
2022/09/25 03:47:45;;;;;;;45.80;40.83;;;;;;;;;;4988727;28;20189;-42
2022/09/25 03:50:12;;;;;;;52.93;44.43;;;;;;;;;;4987383;28;20189;-43
2022/09/25 03:52:38;;;;;;;38.90;34.80;;;;;;;;;;4988385;28;20196;-43
2022/09/25 03:55:04;;;;;;;40.17;36.07;;;;;;;;;;4988585;28;20920;-43
2022/09/25 03:57:31;;;;;;;46.97;41.83;;;;;;;;;;4989991;28;20204;-43
2022/09/25 04:00:02;;;;;;;54.87;46.23;;;;;;;;;;4989856;28;20185;-43
2022/09/25 04:02:28;;;;;;;51.07;43.83;;;;;;;;;;4989171;28;20292;-43
2022/09/25 04:04:55;;;;;;;55.53;47.10;;;;;;;;;;4985672;28;20186;-43
2022/09/25 04:07:24;;;;;;;50.10;43.10;;;;;;;;;;4989401;28;20181;-44
2022/09/25 04:09:50;;;;;;;64.60;51.57;;;;;;;;;;4987284;28;20182;-44
2022/09/25 04:12:16;;;;;;;61.60;49.57;;;;;;;;;;4987177;28;20356;-43
2022/09/25 04:14:44;;;;;;;72.23;54.43;;;;;;;;;;4985260;28;20185;-43
2022/09/25 04:17:11;;;;;;;66.60;52.53;;;;;;;;;;4988419;28;20185;-43
2022/09/25 04:19:37;;;;;;;62.07;51.03;;;;;;;;;;4985915;28;20169;-43
2022/09/25 04:22:03;;;;;;;64.07;51.87;;;;;;;;;;4991438;28;20349;-43
2022/09/25 04:24:48;;;;;;;47.90;41.57;;;;;;;;;;4988723;28;20991;-42
2022/09/25 04:27:14;;;;;;;47.80;42.03;;;;;;;;;;4989105;28;20227;-41
2022/09/25 04:29:41;;;;;;;51.70;43.00;;;;;;;;;;4990149;28;20185;-42
2022/09/25 04:34:52;;;;;;;55.23;47.17;;;;;;;;;;4988598;28;20269;-42
2022/09/25 04:37:25;;;;;;;48.50;43.37;;;;;;;;;;4988420;28;20188;-42
2022/09/25 04:39:51;;;;;;;66.00;53.23;;;;;;;;;;4986820;28;20184;-42
2022/09/25 04:42:17;;;;;;;47.30;42.20;;;;;;;;;;4986238;28;20285;-43
2022/09/25 04:44:43;;;;;;;48.73;43.70;;;;;;;;;;4987772;28;21724;-43
2022/09/25 04:47:09;;;;;;;73.57;57.00;;;;;;;;;;4987156;28;20193;-43
2022/09/25 04:49:37;;;;;;;62.60;52.23;;;;;;;;;;4988359;28;20173;-43
2022/09/25 04:52:03;;;;;;;73.87;58.67;;;;;;;;;;4989415;28;20205;-43
2022/09/25 04:54:29;;;;;;;79.57;60.53;;;;;;;;;;4987083;28;20181;-43
2022/09/25 04:56:56;;;;;;;68.37;55.03;;;;;;;;;;4988775;28;20173;-43
2022/09/25 04:59:22;;;;;;;79.23;59.97;;;;;;;;;;4989424;28;20329;-43
2022/09/25 05:01:48;;;;;;;78.80;60.00;;;;;;;;;;4989013;28;20177;-43
2022/09/25 05:04:15;;;;;;;76.87;60.07;;;;;;;;;;4987665;28;21000;-43
2022/09/25 05:06:41;;;;;;;63.47;53.17;;;;;;;;;;4986210;28;20181;-43
2022/09/25 05:09:07;;;;;;;96.17;68.50;;;;;;;;;;4985967;28;20188;-43
2022/09/25 05:11:34;;;;;;;86.03;66.23;;;;;;;;;;4988789;28;20254;-43
2022/09/25 05:14:00;;;;;;;86.20;66.33;;;;;;;;;;4990179;28;21052;-43
2022/09/25 05:16:27;;;;;;;89.43;68.50;;;;;;;;;;4983725;28;20185;-43
2022/09/25 05:18:53;;;;;;;81.97;64.93;;;;;;;;;;4988711;28;20262;-43
2022/09/25 05:21:20;;;;;;;83.57;65.60;;;;;;;;;;4985346;28;20184;-43
2022/09/25 05:23:46;;;;;;;76.63;61.27;;;;;;;;;;5019475;28;20181;-43
2022/09/25 05:26:12;;;;;;;87.73;64.70;;;;;;;;;;4987768;28;20208;-42
2022/09/25 05:28:38;;;;;;;65.30;55.30;;;;;;;;;;4988014;28;20889;-43
2022/09/25 05:31:05;;;;;;;61.20;52.70;;;;;;;;;;4987738;28;20181;-43
2022/09/25 05:33:31;;;;;;;64.90;55.53;;;;;;;;;;4985720;28;20295;-43
2022/09/25 05:36:01;;;;;;;74.60;59.70;;;;;;;;;;4985088;28;20216;-43
2022/09/25 05:38:28;;;;;;;57.23;50.93;;;;;;;;;;4988852;28;20182;-43
2022/09/25 05:40:55;;;;;;;61.50;52.33;;;;;;;;;;4984765;28;20591;-43
2022/09/25 05:43:21;;;;;;;82.93;63.90;;;;;;;;;;4986515;28;20185;-43
2022/09/25 05:45:57;;;;;;;56.10;49.87;;;;;;;;;;4986988;28;20184;-46
2022/09/25 05:48:23;;;;;;;54.80;48.93;;;;;;;;;;4985779;28;20177;-46
2022/09/25 05:50:53;;;;;;;56.13;47.60;;;;;;;;;;4983116;28;20177;-46
2022/09/25 05:53:19;;;;;;;56.50;49.83;;;;;;;;;;4981878;28;21055;-46
2022/09/25 05:55:52;;;;;;;61.60;52.47;;;;;;;;;;4985942;28;20901;-44
2022/09/25 05:58:18;;;;;;;67.27;55.90;;;;;;;;;;4987812;28;20180;-44
2022/09/25 06:00:44;;;;;;;60.63;52.00;;;;;;;;;;4988188;28;20173;-44
2022/09/25 06:03:11;;;;;;;65.40;54.93;;;;;;;;;;4984906;28;20177;-44
2022/09/25 06:05:39;;;;;;;69.03;56.87;;;;;;;;;;4984691;28;20538;-44
2022/09/25 06:08:05;;;;;;;71.07;57.73;;;;;;;;;;4988948;28;20181;-44
2022/09/25 06:10:31;;;;;;;56.03;49.93;;;;;;;;;;4987876;28;21563;-44
2022/09/25 06:12:58;;;;;;;61.43;53.40;;;;;;;;;;4989951;28;20287;-44
2022/09/25 06:15:28;;;;;;;57.53;50.20;;;;;;;;;;4986438;28;20928;-45
2022/09/25 06:17:55;;;;;;;69.27;55.23;;;;;;;;;;4984048;28;21028;-44
2022/09/25 06:20:21;;;;;;;72.17;57.30;;;;;;;;;;4978584;28;20179;-44
2022/09/25 06:22:57;;;;;;;57.70;49.60;;;;;;;;;;4987732;28;20295;-45
2022/09/25 06:25:25;;;;;;;64.67;54.03;;;;;;;;;;4985064;28;20177;-44
2022/09/25 06:27:52;;;;;;;63.90;53.57;;;;;;;;;;4985046;28;20193;-44
2022/09/25 06:30:19;;;;;;;52.27;46.13;;;;;;;;;;4984644;28;20828;-44
2022/09/25 06:32:46;;;;;;;60.93;50.40;;;;;;;;;;4981218;28;20921;-44
2022/09/25 06:35:12;;;;;;;59.13;50.80;;;;;;;;;;4983394;28;20343;-44
2022/09/25 06:37:38;;;;;;;65.00;52.80;;;;;;;;;;4985415;28;20181;-43
2022/09/25 06:40:04;;;;;;;55.63;47.73;;;;;;;;;;4982548;28;20220;-43
2022/09/25 06:42:32;;;;;;;66.20;54.63;;;;;;;;;;4984529;28;20187;-43
2022/09/25 06:44:58;;;;;;;52.33;45.53;;;;;;;;;;4985879;28;20941;-43
2022/09/25 06:47:25;;;;;;;57.00;49.30;;;;;;;;;;4986443;28;20180;-43
2022/09/25 06:49:51;;;;;;;53.17;45.97;;;;;;;;;;4984362;28;20270;-43
2022/09/25 06:52:17;;;;;;;62.60;50.70;;;;;;;;;;4983341;28;20197;-43
2022/09/25 06:54:43;;;;;;;63.40;52.60;;;;;;;;;;4976211;28;21121;-44
2022/09/25 06:57:11;;;;;;;72.23;56.27;;;;;;;;;;4978194;28;20231;-44
2022/09/25 06:59:37;;;;;;;51.77;45.90;;;;;;;;;;4981211;28;20186;-44
2022/09/25 07:04:51;;;;;;;59.70;50.87;;;;;;;;;;4979062;28;20195;-44
2022/09/25 07:07:19;;;;;;;58.00;49.50;;;;;;;;;;4976148;28;20184;-44
2022/09/25 07:09:49;;;;;;;66.87;55.10;;;;;;;;;;4974576;28;20191;-44
2022/09/25 07:12:17;;;;;;;71.23;58.03;;;;;;;;;;4975524;28;20208;-43
2022/09/25 07:14:45;;;;;;;83.33;65.63;;;;;;;;;;4978858;28;20185;-43
2022/09/25 07:17:11;;;;;;;70.73;58.33;;;;;;;;;;4989711;28;20181;-43
2022/09/25 07:19:37;;;;;;;59.33;51.83;;;;;;;;;;4986006;28;20187;-43
2022/09/25 07:22:04;;;;;;;63.80;54.53;;;;;;;;;;4988737;28;20258;-43
2022/09/25 07:24:31;;;;;;;81.07;65.30;;;;;;;;;;4983969;28;20181;-42
2022/09/25 07:26:57;;;;;;;77.67;60.67;;;;;;;;;;4986640;28;20219;-43
2022/09/25 07:29:23;;;;;;;66.70;56.63;;;;;;;;;;4989962;28;20193;-44
2022/09/25 07:31:49;;;;;;;85.70;66.70;;;;;;;;;;4987013;28;20535;-44
2022/09/25 07:34:15;;;;;;;78.03;61.53;;;;;;;;;;4988378;28;20724;-44
2022/09/25 07:36:42;;;;;;;73.90;60.17;;;;;;;;;;5002003;28;20247;-44
2022/09/25 07:39:08;;;;;;;70.10;57.67;;;;;;;;;;4986774;28;20208;-44
2022/09/25 07:41:35;;;;;;;80.23;63.80;;;;;;;;;;4983806;28;20189;-44
2022/09/25 07:44:02;;;;;;;74.07;60.40;;;;;;;;;;4984508;28;20185;-45
2022/09/25 07:46:30;;;;;;;72.67;58.20;;;;;;;;;;4984315;28;20193;-44
2022/09/25 07:48:56;;;;;;;72.50;58.43;;;;;;;;;;4991174;28;20204;-44
2022/09/25 07:51:25;;;;;;;86.53;66.70;;;;;;;;;;4991082;28;20208;-44
2022/09/25 07:53:51;;;;;;;83.03;63.83;;;;;;;;;;4988110;28;21138;-44
2022/09/25 07:56:17;;;;;;;93.23;70.60;;;;;;;;;;4990212;28;20189;-44
2022/09/25 07:58:44;;;;;;;86.13;67.90;;;;;;;;;;4989795;28;20181;-44
2022/09/25 08:01:11;;;;;;;82.37;64.13;;;;;;;;;;4991892;28;20196;-44
2022/09/25 08:03:37;;;;;;;101.17;72.93;;;;;;;;;;4990015;28;20185;-44
2022/09/25 08:06:05;;;;;;;107.10;76.20;;;;;;;;;;4990692;28;20271;-44
2022/09/25 08:08:33;;;;;;;113.07;77.27;;;;;;;;;;4994800;28;20298;-44
2022/09/25 08:11:10;;;;;;;93.97;69.93;;;;;;;;;;4989370;28;20608;-44
2022/09/25 08:13:39;;;;;;;77.07;59.97;;;;;;;;;;4994808;28;20324;-43
2022/09/25 08:16:10;;;;;;;80.13;61.60;;;;;;;;;;5020380;28;20165;-43
2022/09/25 08:18:40;;;;;;;70.73;57.30;;;;;;;;;;4991884;28;20173;-43
2022/09/25 08:21:06;;;;;;;75.17;58.00;;;;;;;;;;4989768;28;20287;-43
2022/09/25 08:23:32;;;;;;;72.90;55.47;;;;;;;;;;4993087;28;20169;-43
2022/09/25 08:25:59;;;;;;;65.07;52.10;;;;;;;;;;4992090;28;20247;-43
2022/09/25 08:28:25;;;;;;;66.70;53.37;;;;;;;;;;4994508;28;20443;-43
2022/09/25 08:30:51;;;;;;;61.50;49.93;;;;;;;;;;4990101;28;20176;-43
2022/09/25 08:33:17;;;;;;;56.97;47.90;;;;;;;;;;4989074;28;21237;-43
2022/09/25 08:35:43;;;;;;;72.03;57.03;;;;;;;;;;4990653;28;20173;-45
2022/09/25 08:38:11;;;;;;;69.87;54.17;;;;;;;;;;4990560;28;20306;-43
2022/09/25 08:40:47;;;;;;;70.13;54.33;;;;;;;;;;4991775;28;20165;-44
2022/09/25 08:43:17;;;;;;;62.83;50.73;;;;;;;;;;4990271;28;20177;-44
2022/09/25 08:49:02;;;;;;;66.67;52.67;;;;;;;;;;4990083;28;20207;-44
2022/09/25 08:51:29;;;;;;;70.23;53.97;;;;;;;;;;4992389;28;20201;-44
2022/09/25 08:53:55;;;;;;;60.23;50.10;;;;;;;;;;4992085;28;20256;-44
2022/09/25 08:56:23;;;;;;;66.93;54.00;;;;;;;;;;4989153;28;20271;-44
2022/09/25 08:58:52;;;;;;;59.10;48.00;;;;;;;;;;4986911;28;20173;-44
2022/09/25 09:01:26;;;;;;;58.10;49.07;;;;;;;;;;4989588;28;20263;-44
2022/09/25 09:04:03;;;;;;;49.50;43.53;;;;;;;;;;4983725;28;20304;-44
2022/09/25 09:06:31;;;;;;;48.03;42.20;;;;;;;;;;4991416;28;20172;-44
2022/09/25 09:09:18;;;;;;;51.83;45.20;;;;;;;;;;4989200;28;21028;-44
2022/09/25 09:11:52;;;;;;;50.17;42.80;;;;;;;;;;4987631;28;20189;-44
2022/09/25 09:14:19;;;;;;;46.23;40.87;;;;;;;;;;4989404;28;20210;-44
2022/09/25 09:16:55;;;;;;;48.03;42.73;;;;;;;;;;4988862;28;20388;-44
2022/09/25 09:19:21;;;;;;;45.80;39.73;;;;;;;;;;4990611;28;20184;-44
2022/09/25 09:21:56;;;;;;;38.43;34.30;;;;;;;;;;4988022;28;20914;-43
2022/09/25 09:24:41;;;;;;;43.40;38.43;;;;;;;;;;4989858;28;20208;-44
2022/09/25 09:27:13;;;;;;;47.90;40.73;;;;;;;;;;4989663;28;20284;-44
2022/09/25 09:29:51;;;;;;;41.87;36.17;;;;;;;;;;4992925;28;20736;-43
2022/09/25 09:32:29;;;;;;;41.70;36.60;;;;;;;;;;4987493;28;20242;-43
2022/09/25 09:35:01;;;;;;;36.93;32.93;;;;;;;;;;4986829;28;20591;-44
2022/09/25 09:37:30;;;;;;;40.67;36.27;;;;;;;;;;4987225;28;20166;-44
2022/09/25 09:40:15;;;;;;;39.63;33.63;;;;;;;;;;4990008;28;20749;-44
2022/09/25 09:42:52;;;;;;;32.33;28.83;;;;;;;;;;4983613;28;21121;-45
2022/09/25 09:45:24;;;;;;;33.90;29.37;;;;;;;;;;4988501;28;21254;-44
2022/09/25 09:47:54;;;;;;;34.90;29.77;;;;;;;;;;4989195;28;20191;-44
2022/09/25 09:50:23;;;;;;;39.90;33.60;;;;;;;;;;4991206;28;20874;-44
2022/09/25 09:52:52;;;;;;;35.00;29.73;;;;;;;;;;4987911;28;20212;-45
2022/09/25 09:55:30;;;;;;;32.80;27.97;;;;;;;;;;4984400;28;22607;-45
2022/09/25 09:58:05;;;;;;;37.77;31.37;;;;;;;;;;4985802;28;20189;-43
2022/09/25 10:00:31;;;;;;;34.87;29.77;;;;;;;;;;4986024;28;20198;-44
2022/09/25 10:03:00;;;;;;;36.60;29.87;;;;;;;;;;4986713;28;20176;-43
2022/09/25 10:05:38;;;;;;;33.13;27.93;;;;;;;;;;4987135;28;20282;-43
2022/09/25 10:08:04;;;;;;;36.07;28.73;;;;;;;;;;4986289;28;20181;-44
2022/09/25 10:10:58;;;;;;;40.87;32.27;;;;;;;;;;4984963;28;20190;-43
2022/09/25 10:13:32;;;;;;;32.73;28.07;;;;;;;;;;4985735;28;20290;-43
2022/09/25 10:16:00;;;;;;;34.97;28.93;;;;;;;;;;4983691;28;21252;-44
2022/09/25 10:18:35;;;;;;;43.43;33.10;;;;;;;;;;4978781;28;20572;-44
2022/09/25 10:21:13;;;;;;;35.30;30.03;;;;;;;;;;4985447;28;20167;-43
2022/09/25 10:23:46;;;;;;;37.53;29.90;;;;;;;;;;4986729;28;20176;-43
2022/09/25 10:26:35;;;;;;;33.40;29.03;;;;;;;;;;4988830;28;20180;-43
2022/09/25 10:29:22;;;;;;;34.40;28.70;;;;;;;;;;4991088;28;20181;-43
2022/09/25 10:31:56;;;;;;;33.37;28.70;;;;;;;;;;4988092;28;20669;-43
2022/09/25 10:34:23;;;;;;;35.33;27.70;;;;;;;;;;4984089;28;20613;-44
2022/09/25 10:36:50;;;;;;;33.80;27.27;;;;;;;;;;4988023;28;20675;-43
2022/09/25 10:39:25;;;;;;;36.57;29.67;;;;;;;;;;4990628;28;20178;-44
2022/09/25 10:41:52;;;;;;;33.53;29.77;;;;;;;;;;4987726;28;20370;-44
2022/09/25 10:44:37;;;;;;;33.63;29.07;;;;;;;;;;4985831;28;20176;-44
2022/09/25 10:50:24;;;;;;;32.63;27.80;;;;;;;;;;4986596;28;20192;-42
2022/09/25 10:52:54;;;;;;;33.47;27.20;;;;;;;;;;4992936;28;20192;-43
2022/09/25 10:55:24;;;;;;;31.00;27.70;;;;;;;;;;4990437;28;20184;-43
2022/09/25 10:57:54;;;;;;;32.37;28.00;;;;;;;;;;4987579;28;20443;-43
2022/09/25 11:00:22;;;;;;;32.13;28.73;;;;;;;;;;4986662;28;20274;-45
2022/09/25 11:02:52;;;;;;;32.73;27.50;;;;;;;;;;4988320;28;20181;-44
2022/09/25 11:05:20;;;;;;;32.97;29.20;;;;;;;;;;4987866;28;20416;-44
2022/09/25 11:07:53;;;;;;;29.70;25.60;;;;;;;;;;4989722;28;20412;-42
2022/09/25 11:10:36;;;;;;;28.37;24.87;;;;;;;;;;4988266;28;20172;-42
2022/09/25 11:13:08;;;;;;;25.77;23.00;;;;;;;;;;4986988;28;20208;-43
2022/09/25 11:15:37;;;;;;;26.80;23.40;;;;;;;;;;4990279;28;20176;-43
2022/09/25 11:18:05;;;;;;;30.17;26.97;;;;;;;;;;4989744;28;21084;-43
2022/09/25 11:20:32;;;;;;;33.70;29.57;;;;;;;;;;4986010;28;20188;-43
2022/09/25 11:23:11;;;;;;;32.13;28.47;;;;;;;;;;4983299;28;20177;-43
2022/09/25 11:25:40;;;;;;;29.37;26.23;;;;;;;;;;4984379;28;20237;-43
2022/09/25 11:28:12;;;;;;;34.77;29.80;;;;;;;;;;4989278;28;20188;-43
2022/09/25 11:30:49;;;;;;;28.70;25.70;;;;;;;;;;4991071;28;20716;-43
2022/09/25 11:33:15;;;;;;;33.50;28.83;;;;;;;;;;4990054;28;20196;-43
2022/09/25 11:35:45;;;;;;;33.27;29.30;;;;;;;;;;4984405;28;20252;-43
2022/09/25 11:41:25;;;;;;;32.90;27.63;;;;;;;;;;4980254;28;20188;-44
2022/09/25 11:44:09;;;;;;;31.63;27.47;;;;;;;;;;4986119;28;20166;-43
2022/09/25 11:46:54;;;;;;;30.73;26.57;;;;;;;;;;4991422;28;20166;-43
2022/09/25 11:49:26;;;;;;;35.43;29.77;;;;;;;;;;4988716;28;20649;-44
2022/09/25 11:52:12;;;;;;;35.00;29.37;;;;;;;;;;4990938;28;20196;-43
2022/09/25 11:54:47;;;;;;;32.07;28.53;;;;;;;;;;4991650;28;20549;-42
2022/09/25 11:57:18;;;;;;;32.57;27.83;;;;;;;;;;4994061;28;20176;-43
2022/09/25 11:59:47;;;;;;;33.83;29.10;;;;;;;;;;4992004;28;20173;-42
2022/09/25 12:02:35;;;;;;;32.83;27.70;;;;;;;;;;4987785;28;20347;-43
2022/09/25 12:05:03;;;;;;;31.27;27.87;;;;;;;;;;4990327;28;20180;-43
2022/09/25 12:07:42;;;;;;;29.83;25.60;;;;;;;;;;4992293;28;20181;-43
2022/09/25 12:10:20;;;;;;;31.70;28.03;;;;;;;;;;4991122;28;20467;-44
2022/09/25 12:12:59;;;;;;;29.63;26.10;;;;;;;;;;4988087;28;20204;-43
2022/09/25 12:15:55;;;;;;;28.37;24.53;;;;;;;;;;4993735;28;20359;-43
2022/09/25 12:18:43;;;;;;;26.30;23.40;;;;;;;;;;4993571;28;20185;-43
2022/09/25 12:21:21;;;;;;;28.20;25.03;;;;;;;;;;4990575;28;20554;-43
2022/09/25 12:24:04;;;;;;;26.60;23.70;;;;;;;;;;4992757;28;20179;-43
2022/09/25 12:26:50;;;;;;;25.93;23.20;;;;;;;;;;4986757;28;21017;-43
2022/09/25 12:29:28;;;;;;;27.13;23.17;;;;;;;;;;4984465;28;20188;-43
2022/09/25 12:32:03;;;;;;;23.67;21.07;;;;;;;;;;4994204;28;20197;-43
2022/09/25 12:34:29;;;;;;;24.20;21.60;;;;;;;;;;4985982;28;20195;-43
2022/09/25 12:37:21;;;;;;;29.23;24.87;;;;;;;;;;4983739;28;20177;-43
2022/09/25 12:40:10;;;;;;;25.23;21.90;;;;;;;;;;4990556;28;20624;-43
2022/09/25 12:42:55;;;;;;;23.40;20.90;;;;;;;;;;4988759;28;20727;-43
2022/09/25 12:45:32;;;;;;;24.37;21.73;;;;;;;;;;4989964;28;20632;-43
2022/09/25 12:47:58;;;;;;;24.47;21.23;;;;;;;;;;4987245;28;20181;-43
2022/09/25 12:50:30;;;;;;;24.60;22.03;;;;;;;;;;4986531;28;20189;-43
2022/09/25 12:52:58;;;;;;;26.50;23.70;;;;;;;;;;4991676;28;20336;-42
2022/09/25 12:55:41;;;;;;;26.17;23.27;;;;;;;;;;4988608;28;20300;-43
2022/09/25 12:58:20;;;;;;;27.87;24.67;;;;;;;;;;4985552;28;20276;-42
2022/09/25 13:00:47;;;;;;;25.47;21.37;;;;;;;;;;4981006;28;20734;-43
2022/09/25 13:03:14;;;;;;;24.87;21.67;;;;;;;;;;4984041;28;21021;-42
2022/09/25 13:05:43;;;;;;;21.77;19.47;;;;;;;;;;4988818;28;21002;-43
2022/09/25 13:08:16;;;;;;;22.83;20.17;;;;;;;;;;4985650;28;20185;-43
2022/09/25 13:10:44;;;;;;;22.10;19.40;;;;;;;;;;4982572;28;20225;-42
2022/09/25 13:13:18;;;;;;;23.37;20.90;;;;;;;;;;4983104;28;20205;-45
2022/09/25 13:15:47;;;;;;;23.10;20.63;;;;;;;;;;4984722;28;20185;-42
2022/09/25 13:18:18;;;;;;;22.30;19.90;;;;;;;;;;4988255;28;20224;-42
2022/09/25 13:20:48;;;;;;;23.30;20.40;;;;;;;;;;4988397;28;20928;-42
2022/09/25 13:23:16;;;;;;;21.30;19.10;;;;;;;;;;4986672;28;20470;-42
2022/09/25 13:25:45;;;;;;;23.87;21.37;;;;;;;;;;4989585;28;20174;-42
2022/09/25 13:28:19;;;;;;;23.00;19.97;;;;;;;;;;4992331;28;20195;-43
2022/09/25 13:31:01;;;;;;;23.03;19.90;;;;;;;;;;4992421;28;20176;-41
2022/09/25 13:33:27;;;;;;;22.93;20.30;;;;;;;;;;4994787;28;20382;-42
2022/09/25 13:36:26;;;;;;;20.37;18.23;;;;;;;;;;4992645;28;20172;-43
2022/09/25 13:41:48;;;;;;;20.20;18.10;;;;;;;;;;4990619;28;20187;-43
2022/09/25 13:44:33;;;;;;;20.67;18.47;;;;;;;;;;4993112;28;20884;-43
2022/09/25 13:47:18;;;;;;;18.50;16.57;;;;;;;;;;4989921;28;20176;-43
2022/09/25 13:50:00;;;;;;;19.37;17.37;;;;;;;;;;4992271;28;20249;-43
2022/09/25 13:52:29;;;;;;;20.30;18.10;;;;;;;;;;4993755;28;20201;-42
2022/09/25 13:55:16;;;;;;;21.20;18.27;;;;;;;;;;4986651;28;20169;-43
2022/09/25 13:57:54;;;;;;;21.70;19.47;;;;;;;;;;4989510;28;20204;-43
2022/09/25 14:00:21;;;;;;;21.87;19.53;;;;;;;;;;4987212;28;20161;-43
2022/09/25 14:02:48;;;;;;;19.83;17.83;;;;;;;;;;4992033;28;20183;-43
2022/09/25 14:05:16;;;;;;;21.70;19.40;;;;;;;;;;4990990;28;21036;-43
2022/09/25 14:07:43;;;;;;;19.87;17.40;;;;;;;;;;4990847;28;20194;-43
2022/09/25 14:10:11;;;;;;;21.33;19.03;;;;;;;;;;4990243;28;20824;-43
2022/09/25 14:12:46;;;;;;;19.30;17.30;;;;;;;;;;4988191;28;21053;-43
2022/09/25 14:15:32;;;;;;;19.27;17.27;;;;;;;;;;4988039;28;20180;-43
2022/09/25 14:17:59;;;;;;;18.07;16.27;;;;;;;;;;4990363;28;20247;-42
2022/09/25 14:20:26;;;;;;;20.80;18.60;;;;;;;;;;4985134;28;20379;-43
2022/09/25 14:22:54;;;;;;;21.50;19.30;;;;;;;;;;4985309;28;20460;-43
2022/09/25 14:25:32;;;;;;;22.07;19.37;;;;;;;;;;4985046;28;20194;-43
2022/09/25 14:27:59;;;;;;;20.30;18.23;;;;;;;;;;4986401;28;20589;-42
2022/09/25 14:30:28;;;;;;;21.10;18.90;;;;;;;;;;4984170;28;20181;-43
2022/09/25 14:33:10;;;;;;;20.80;18.63;;;;;;;;;;4981000;28;20568;-43
2022/09/25 14:35:40;;;;;;;20.87;18.70;;;;;;;;;;4985303;28;20181;-43
2022/09/25 14:38:18;;;;;;;21.93;19.63;;;;;;;;;;4979917;28;20177;-43
2022/09/25 14:41:08;;;;;;;21.93;19.63;;;;;;;;;;4983795;28;20661;-45
2022/09/25 14:43:43;;;;;;;21.20;18.90;;;;;;;;;;4979071;28;20177;-42
2022/09/25 14:46:18;;;;;;;23.47;20.87;;;;;;;;;;4976697;28;20333;-43
2022/09/25 14:48:44;;;;;;;22.87;20.40;;;;;;;;;;4978155;28;20847;-45
2022/09/25 14:51:13;;;;;;;24.20;21.67;;;;;;;;;;4983661;28;20189;-43
2022/09/25 14:53:44;;;;;;;23.13;20.63;;;;;;;;;;4981812;28;20680;-43
2022/09/25 14:56:13;;;;;;;24.07;21.57;;;;;;;;;;4979124;28;20188;-43
2022/09/25 14:58:49;;;;;;;23.90;21.40;;;;;;;;;;4978470;28;20705;-43
2022/09/25 15:01:28;;;;;;;22.20;19.90;;;;;;;;;;4979107;28;20566;-42